sensor_id;sensor_type;location;lat;lon;timestamp;pressure;altitude;pressure_sealevel;temperature;humidity
47524;BME280;33253;42.144;25.884;2024-01-30T00:01:57;102728.56;;;-0.29;100.00
47524;BME280;33253;42.144;25.884;2024-01-30T00:04:23;102700.47;;;-0.38;100.00
47524;BME280;33253;42.144;25.884;2024-01-30T00:06:48;102722.78;;;-0.28;100.00
47524;BME280;33253;42.144;25.884;2024-01-30T00:09:14;102728.75;;;-0.20;100.00
47524;BME280;33253;42.144;25.884;2024-01-30T00:11:39;102718.25;;;-0.23;100.00
47524;BME280;33253;42.144;25.884;2024-01-30T00:14:05;102739.78;;;-0.05;100.00
47524;BME280;33253;42.144;25.884;2024-01-30T00:16:30;102703.41;;;-0.35;100.00
47524;BME280;33253;42.144;25.884;2024-01-30T00:18:56;102720.25;;;-0.35;100.00
47524;BME280;33253;42.144;25.884;2024-01-30T00:21:22;102736.41;;;-0.35;100.00
47524;BME280;33253;42.144;25.884;2024-01-30T00:23:47;102733.69;;;-0.43;100.00
47524;BME280;33253;42.144;25.884;2024-01-30T00:26:13;102734.41;;;-0.37;100.00
47524;BME280;33253;42.144;25.884;2024-01-30T00:28:41;102743.47;;;-0.32;100.00
47524;BME280;33253;42.144;25.884;2024-01-30T00:31:07;102515.97;;;-1.56;100.00
47524;BME280;33253;42.144;25.884;2024-01-30T00:33:32;102733.47;;;-0.23;100.00
47524;BME280;33253;42.144;25.884;2024-01-30T00:35:58;102734.19;;;-0.10;100.00
47524;BME280;33253;42.144;25.884;2024-01-30T00:38:24;102735.97;;;-0.02;100.00
47524;BME280;33253;42.144;25.884;2024-01-30T00:40:49;102726.91;;;-0.07;100.00
47524;BME280;33253;42.144;25.884;2024-01-30T00:43:15;102691.75;;;-0.25;100.00
47524;BME280;33253;42.144;25.884;2024-01-30T00:45:41;102692.31;;;-0.21;100.00
47524;BME280;33253;42.144;25.884;2024-01-30T00:48:06;102742.31;;;0.02;100.00
47524;BME280;33253;42.144;25.884;2024-01-30T00:50:32;102736.50;;;0.03;100.00
47524;BME280;33253;42.144;25.884;2024-01-30T00:52:57;102740.88;;;0.04;100.00
47524;BME280;33253;42.144;25.884;2024-01-30T00:55:23;102659.88;;;-0.45;100.00
47524;BME280;33253;42.144;25.884;2024-01-30T00:57:48;102745.56;;;0.01;100.00
47524;BME280;33253;42.144;25.884;2024-01-30T01:00:14;102643.22;;;-0.50;100.00
47524;BME280;33253;42.144;25.884;2024-01-30T01:02:42;102693.56;;;-0.17;100.00
47524;BME280;33253;42.144;25.884;2024-01-30T01:05:08;102668.03;;;-0.33;100.00
47524;BME280;33253;42.144;25.884;2024-01-30T01:07:34;102631.47;;;-0.50;100.00
47524;BME280;33253;42.144;25.884;2024-01-30T01:09:59;102729.44;;;0.08;100.00
47524;BME280;33253;42.144;25.884;2024-01-30T01:12:25;102648.28;;;-0.43;100.00
47524;BME280;33253;42.144;25.884;2024-01-30T01:14:52;102705.72;;;-0.22;100.00
47524;BME280;33253;42.144;25.884;2024-01-30T01:17:17;102719.69;;;-0.11;100.00
47524;BME280;33253;42.144;25.884;2024-01-30T01:19:44;102689.44;;;-0.31;100.00
47524;BME280;33253;42.144;25.884;2024-01-30T01:22:10;102717.31;;;-0.17;100.00
47524;BME280;33253;42.144;25.884;2024-01-30T01:24:36;102715.88;;;-0.22;100.00
47524;BME280;33253;42.144;25.884;2024-01-30T01:27:01;102651.75;;;-0.50;100.00
47524;BME280;33253;42.144;25.884;2024-01-30T01:29:27;102709.16;;;-0.14;100.00
47524;BME280;33253;42.144;25.884;2024-01-30T01:31:57;102673.81;;;-0.27;100.00
47524;BME280;33253;42.144;25.884;2024-01-30T01:34:23;102685.06;;;-0.25;100.00
47524;BME280;33253;42.144;25.884;2024-01-30T01:36:50;102628.03;;;-0.57;100.00
47524;BME280;33253;42.144;25.884;2024-01-30T01:39:16;102698.09;;;-0.14;100.00
47524;BME280;33253;42.144;25.884;2024-01-30T01:41:41;102705.88;;;-0.13;100.00
47524;BME280;33253;42.144;25.884;2024-01-30T01:44:08;102697.00;;;-0.09;100.00
47524;BME280;33253;42.144;25.884;2024-01-30T01:46:34;102679.06;;;-0.18;100.00
47524;BME280;33253;42.144;25.884;2024-01-30T01:49:00;102696.97;;;-0.02;100.00
47524;BME280;33253;42.144;25.884;2024-01-30T01:51:29;102603.56;;;-0.57;100.00
47524;BME280;33253;42.144;25.884;2024-01-30T01:53:57;102703.88;;;-0.01;100.00
47524;BME280;33253;42.144;25.884;2024-01-30T01:56:23;102701.34;;;-0.01;100.00
47524;BME280;33253;42.144;25.884;2024-01-30T01:58:49;102693.34;;;0.03;100.00
47524;BME280;33253;42.144;25.884;2024-01-30T02:01:16;102685.03;;;-0.10;100.00
47524;BME280;33253;42.144;25.884;2024-01-30T02:03:44;102689.91;;;0.03;100.00
47524;BME280;33253;42.144;25.884;2024-01-30T02:06:10;102681.53;;;0.04;100.00
47524;BME280;33253;42.144;25.884;2024-01-30T02:08:37;102681.91;;;0.07;100.00
47524;BME280;33253;42.144;25.884;2024-01-30T02:11:03;102702.03;;;0.05;100.00
47524;BME280;33253;42.144;25.884;2024-01-30T02:13:28;102683.00;;;0.09;100.00
47524;BME280;33253;42.144;25.884;2024-01-30T02:15:54;102682.22;;;0.10;100.00
47524;BME280;33253;42.144;25.884;2024-01-30T02:18:20;102678.63;;;0.15;100.00
47524;BME280;33253;42.144;25.884;2024-01-30T02:20:48;102679.50;;;0.15;100.00
47524;BME280;33253;42.144;25.884;2024-01-30T02:23:15;102671.75;;;0.07;100.00
47524;BME280;33253;42.144;25.884;2024-01-30T02:25:42;102675.88;;;0.06;100.00
47524;BME280;33253;42.144;25.884;2024-01-30T02:28:14;102696.75;;;0.11;100.00
47524;BME280;33253;42.144;25.884;2024-01-30T02:30:40;102694.38;;;0.12;100.00
47524;BME280;33253;42.144;25.884;2024-01-30T02:33:07;102635.75;;;-0.20;100.00
47524;BME280;33253;42.144;25.884;2024-01-30T02:35:33;102680.06;;;0.13;100.00
47524;BME280;33253;42.144;25.884;2024-01-30T02:37:59;102684.06;;;0.11;100.00
47524;BME280;33253;42.144;25.884;2024-01-30T02:40:25;102662.84;;;0.03;100.00
47524;BME280;33253;42.144;25.884;2024-01-30T02:42:50;102672.28;;;0.11;100.00
47524;BME280;33253;42.144;25.884;2024-01-30T02:45:16;102604.03;;;-0.30;100.00
47524;BME280;33253;42.144;25.884;2024-01-30T02:47:41;102662.66;;;0.09;100.00
47524;BME280;33253;42.144;25.884;2024-01-30T02:50:07;102670.47;;;0.10;100.00
47524;BME280;33253;42.144;25.884;2024-01-30T02:52:33;102633.13;;;-0.05;100.00
47524;BME280;33253;42.144;25.884;2024-01-30T02:54:58;102592.44;;;-0.28;100.00
47524;BME280;33253;42.144;25.884;2024-01-30T02:57:24;102670.06;;;0.14;100.00
47524;BME280;33253;42.144;25.884;2024-01-30T02:59:49;102666.25;;;0.18;100.00
47524;BME280;33253;42.144;25.884;2024-01-30T03:02:15;102646.91;;;0.04;100.00
47524;BME280;33253;42.144;25.884;2024-01-30T03:04:41;102663.88;;;0.20;100.00
47524;BME280;33253;42.144;25.884;2024-01-30T03:07:08;102662.97;;;0.19;100.00
47524;BME280;33253;42.144;25.884;2024-01-30T03:09:33;102659.53;;;0.19;100.00
47524;BME280;33253;42.144;25.884;2024-01-30T03:11:59;102663.50;;;0.24;100.00
47524;BME280;33253;42.144;25.884;2024-01-30T03:14:24;102651.16;;;0.20;100.00
47524;BME280;33253;42.144;25.884;2024-01-30T03:16:50;102649.50;;;0.27;100.00
47524;BME280;33253;42.144;25.884;2024-01-30T03:19:15;102645.66;;;0.31;100.00
47524;BME280;33253;42.144;25.884;2024-01-30T03:21:41;102646.19;;;0.36;100.00
47524;BME280;33253;42.144;25.884;2024-01-30T03:24:06;102544.84;;;-0.15;100.00
47524;BME280;33253;42.144;25.884;2024-01-30T03:26:33;102638.72;;;0.44;100.00
47524;BME280;33253;42.144;25.884;2024-01-30T03:28:58;102639.22;;;0.49;100.00
47524;BME280;33253;42.144;25.884;2024-01-30T03:31:24;102553.50;;;0.02;100.00
47524;BME280;33253;42.144;25.884;2024-01-30T03:33:49;102639.19;;;0.56;100.00
47524;BME280;33253;42.144;25.884;2024-01-30T03:36:15;102641.91;;;0.58;100.00
47524;BME280;33253;42.144;25.884;2024-01-30T03:38:41;102636.25;;;0.60;100.00
47524;BME280;33253;42.144;25.884;2024-01-30T03:41:09;102652.75;;;0.64;100.00
47524;BME280;33253;42.144;25.884;2024-01-30T03:43:37;102654.56;;;0.65;100.00
47524;BME280;33253;42.144;25.884;2024-01-30T03:46:03;102655.63;;;0.67;100.00
47524;BME280;33253;42.144;25.884;2024-01-30T03:48:29;102653.09;;;0.67;100.00
47524;BME280;33253;42.144;25.884;2024-01-30T03:50:55;102661.31;;;0.57;100.00
47524;BME280;33253;42.144;25.884;2024-01-30T03:53:22;102639.06;;;0.47;100.00
47524;BME280;33253;42.144;25.884;2024-01-30T03:55:47;102647.56;;;0.55;100.00
47524;BME280;33253;42.144;25.884;2024-01-30T03:58:13;102646.47;;;0.53;100.00
47524;BME280;33253;42.144;25.884;2024-01-30T04:00:38;102645.00;;;0.55;100.00
47524;BME280;33253;42.144;25.884;2024-01-30T04:03:04;102644.09;;;0.55;100.00
47524;BME280;33253;42.144;25.884;2024-01-30T04:05:30;102604.47;;;0.34;100.00
47524;BME280;33253;42.144;25.884;2024-01-30T04:07:56;102637.72;;;0.58;100.00
47524;BME280;33253;42.144;25.884;2024-01-30T04:10:21;102478.03;;;-0.30;100.00
47524;BME280;33253;42.144;25.884;2024-01-30T04:12:47;102653.50;;;0.63;100.00
47524;BME280;33253;42.144;25.884;2024-01-30T04:15:13;102626.66;;;0.58;100.00
47524;BME280;33253;42.144;25.884;2024-01-30T04:17:39;102634.72;;;0.70;100.00
47524;BME280;33253;42.144;25.884;2024-01-30T04:20:05;102651.91;;;0.79;100.00
47524;BME280;33253;42.144;25.884;2024-01-30T04:22:31;102648.09;;;0.83;100.00
47524;BME280;33253;42.144;25.884;2024-01-30T04:24:57;102644.41;;;0.88;100.00
47524;BME280;33253;42.144;25.884;2024-01-30T04:27:22;102646.78;;;0.87;100.00
47524;BME280;33253;42.144;25.884;2024-01-30T04:29:48;102649.84;;;0.91;100.00
47524;BME280;33253;42.144;25.884;2024-01-30T04:32:13;102651.88;;;0.87;100.00
47524;BME280;33253;42.144;25.884;2024-01-30T04:34:40;102663.47;;;0.92;100.00
47524;BME280;33253;42.144;25.884;2024-01-30T04:37:05;102658.00;;;0.96;100.00
47524;BME280;33253;42.144;25.884;2024-01-30T04:39:33;102658.31;;;0.99;100.00
47524;BME280;33253;42.144;25.884;2024-01-30T04:41:59;102654.69;;;0.97;100.00
47524;BME280;33253;42.144;25.884;2024-01-30T04:44:25;102651.81;;;0.94;100.00
47524;BME280;33253;42.144;25.884;2024-01-30T04:46:50;102654.22;;;0.92;100.00
47524;BME280;33253;42.144;25.884;2024-01-30T04:49:16;102650.41;;;0.89;100.00
47524;BME280;33253;42.144;25.884;2024-01-30T04:51:41;102664.19;;;0.91;100.00
47524;BME280;33253;42.144;25.884;2024-01-30T04:54:07;102650.22;;;0.87;100.00
47524;BME280;33253;42.144;25.884;2024-01-30T04:56:33;102648.59;;;0.88;100.00
47524;BME280;33253;42.144;25.884;2024-01-30T04:58:59;102600.31;;;0.57;100.00
47524;BME280;33253;42.144;25.884;2024-01-30T05:01:25;102653.00;;;0.82;100.00
47524;BME280;33253;42.144;25.884;2024-01-30T05:03:51;102648.81;;;0.82;100.00
47524;BME280;33253;42.144;25.884;2024-01-30T05:06:26;102654.81;;;0.83;100.00
47524;BME280;33253;42.144;25.884;2024-01-30T05:08:51;102637.97;;;0.76;100.00
47524;BME280;33253;42.144;25.884;2024-01-30T05:11:17;102654.25;;;0.85;100.00
47524;BME280;33253;42.144;25.884;2024-01-30T05:13:42;102656.06;;;0.86;100.00
47524;BME280;33253;42.144;25.884;2024-01-30T05:16:08;102648.47;;;0.79;100.00
47524;BME280;33253;42.144;25.884;2024-01-30T05:18:33;102641.06;;;0.73;100.00
47524;BME280;33253;42.144;25.884;2024-01-30T05:20:59;102659.06;;;0.75;100.00
47524;BME280;33253;42.144;25.884;2024-01-30T05:23:25;102659.59;;;0.72;100.00
47524;BME280;33253;42.144;25.884;2024-01-30T05:25:50;102667.56;;;0.75;100.00
47524;BME280;33253;42.144;25.884;2024-01-30T05:28:16;102657.25;;;0.74;100.00
47524;BME280;33253;42.144;25.884;2024-01-30T05:30:42;102664.63;;;0.79;100.00
47524;BME280;33253;42.144;25.884;2024-01-30T05:33:07;102560.81;;;0.22;100.00
47524;BME280;33253;42.144;25.884;2024-01-30T05:35:33;102675.50;;;0.86;100.00
47524;BME280;33253;42.144;25.884;2024-01-30T05:37:58;102670.41;;;0.86;100.00
47524;BME280;33253;42.144;25.884;2024-01-30T05:40:24;102655.75;;;0.76;100.00
47524;BME280;33253;42.144;25.884;2024-01-30T05:42:49;102676.22;;;0.85;100.00
47524;BME280;33253;42.144;25.884;2024-01-30T05:45:15;102675.16;;;0.83;100.00
47524;BME280;33253;42.144;25.884;2024-01-30T05:47:40;102684.38;;;0.89;100.00
47524;BME280;33253;42.144;25.884;2024-01-30T05:50:06;102675.84;;;0.89;100.00
47524;BME280;33253;42.144;25.884;2024-01-30T05:52:32;102609.25;;;0.54;100.00
47524;BME280;33253;42.144;25.884;2024-01-30T05:54:57;102676.53;;;0.95;100.00
47524;BME280;33253;42.144;25.884;2024-01-30T05:57:24;102677.78;;;0.99;100.00
47524;BME280;33253;42.144;25.884;2024-01-30T05:59:50;102681.22;;;0.99;100.00
47524;BME280;33253;42.144;25.884;2024-01-30T06:02:17;102614.09;;;0.59;100.00
47524;BME280;33253;42.144;25.884;2024-01-30T06:04:42;102686.31;;;0.99;100.00
47524;BME280;33253;42.144;25.884;2024-01-30T06:07:09;102677.25;;;0.94;100.00
47524;BME280;33253;42.144;25.884;2024-01-30T06:09:35;102687.97;;;0.99;100.00
47524;BME280;33253;42.144;25.884;2024-01-30T06:12:00;102686.13;;;0.98;100.00
47524;BME280;33253;42.144;25.884;2024-01-30T06:14:26;102684.72;;;0.92;100.00
47524;BME280;33253;42.144;25.884;2024-01-30T06:16:51;102660.09;;;0.77;100.00
47524;BME280;33253;42.144;25.884;2024-01-30T06:19:17;102670.28;;;0.77;100.00
47524;BME280;33253;42.144;25.884;2024-01-30T06:21:42;102687.28;;;0.92;100.00
47524;BME280;33253;42.144;25.884;2024-01-30T06:24:08;102679.81;;;0.94;100.00
47524;BME280;33253;42.144;25.884;2024-01-30T06:26:34;102687.44;;;0.94;100.00
47524;BME280;33253;42.144;25.884;2024-01-30T06:28:59;102684.38;;;0.89;100.00
47524;BME280;33253;42.144;25.884;2024-01-30T06:31:25;102633.56;;;0.59;100.00
47524;BME280;33253;42.144;25.884;2024-01-30T06:33:50;102689.28;;;0.88;100.00
47524;BME280;33253;42.144;25.884;2024-01-30T06:36:16;102689.84;;;0.85;100.00
47524;BME280;33253;42.144;25.884;2024-01-30T06:38:41;102682.28;;;0.78;100.00
47524;BME280;33253;42.144;25.884;2024-01-30T06:41:07;102627.47;;;0.42;100.00
47524;BME280;33253;42.144;25.884;2024-01-30T06:43:32;102687.34;;;0.78;100.00
47524;BME280;33253;42.144;25.884;2024-01-30T06:45:58;102679.59;;;0.69;100.00
47524;BME280;33253;42.144;25.884;2024-01-30T06:48:24;102677.78;;;0.68;100.00
47524;BME280;33253;42.144;25.884;2024-01-30T06:50:53;102707.50;;;0.84;100.00
47524;BME280;33253;42.144;25.884;2024-01-30T06:53:19;102678.16;;;0.71;100.00
47524;BME280;33253;42.144;25.884;2024-01-30T06:55:45;102711.25;;;0.87;100.00
47524;BME280;33253;42.144;25.884;2024-01-30T06:58:10;102708.56;;;0.86;100.00
47524;BME280;33253;42.144;25.884;2024-01-30T07:00:36;102720.53;;;0.87;100.00
47524;BME280;33253;42.144;25.884;2024-01-30T07:03:02;102725.59;;;0.94;100.00
47524;BME280;33253;42.144;25.884;2024-01-30T07:05:27;102621.69;;;0.36;100.00
47524;BME280;33253;42.144;25.884;2024-01-30T07:07:53;102724.13;;;0.96;100.00
47524;BME280;33253;42.144;25.884;2024-01-30T07:10:18;102727.72;;;0.98;100.00
47524;BME280;33253;42.144;25.884;2024-01-30T07:12:44;102713.31;;;0.83;100.00
47524;BME280;33253;42.144;25.884;2024-01-30T07:15:09;102747.94;;;0.89;100.00
47524;BME280;33253;42.144;25.884;2024-01-30T07:17:35;102647.59;;;0.48;100.00
47524;BME280;33253;42.144;25.884;2024-01-30T07:20:01;102716.91;;;0.85;100.00
47524;BME280;33253;42.144;25.884;2024-01-30T07:22:30;102727.75;;;0.91;100.00
47524;BME280;33253;42.144;25.884;2024-01-30T07:24:56;102654.69;;;0.43;100.00
47524;BME280;33253;42.144;25.884;2024-01-30T07:27:21;102745.91;;;1.01;100.00
47524;BME280;33253;42.144;25.884;2024-01-30T07:29:47;102649.25;;;0.47;100.00
47524;BME280;33253;42.144;25.884;2024-01-30T07:32:12;102658.59;;;0.56;100.00
47524;BME280;33253;42.144;25.884;2024-01-30T07:34:38;102724.13;;;0.96;100.00
47524;BME280;33253;42.144;25.884;2024-01-30T07:37:03;102749.44;;;1.10;100.00
47524;BME280;33253;42.144;25.884;2024-01-30T07:39:29;102741.97;;;1.12;100.00
47524;BME280;33253;42.144;25.884;2024-01-30T07:41:54;102745.06;;;1.17;100.00
47524;BME280;33253;42.144;25.884;2024-01-30T07:44:20;102682.22;;;0.85;100.00
47524;BME280;33253;42.144;25.884;2024-01-30T07:46:46;102738.81;;;1.22;100.00
47524;BME280;33253;42.144;25.884;2024-01-30T07:49:11;102735.22;;;1.20;100.00
47524;BME280;33253;42.144;25.884;2024-01-30T07:51:39;102738.81;;;1.22;100.00
47524;BME280;33253;42.144;25.884;2024-01-30T07:54:05;102726.69;;;1.19;100.00
47524;BME280;33253;42.144;25.884;2024-01-30T07:56:30;102738.25;;;1.24;100.00
47524;BME280;33253;42.144;25.884;2024-01-30T07:58:56;102718.47;;;1.22;100.00
47524;BME280;33253;42.144;25.884;2024-01-30T08:01:21;102724.97;;;1.27;100.00
47524;BME280;33253;42.144;25.884;2024-01-30T08:03:47;102726.41;;;1.32;100.00
47524;BME280;33253;42.144;25.884;2024-01-30T08:06:12;102730.75;;;1.33;100.00
47524;BME280;33253;42.144;25.884;2024-01-30T08:08:38;102735.47;;;1.37;100.00
47524;BME280;33253;42.144;25.884;2024-01-30T08:11:03;102731.78;;;1.42;100.00
47524;BME280;33253;42.144;25.884;2024-01-30T08:13:29;102731.38;;;1.47;100.00
47524;BME280;33253;42.144;25.884;2024-01-30T08:15:54;102643.22;;;1.01;100.00
47524;BME280;33253;42.144;25.884;2024-01-30T08:18:20;102724.09;;;1.50;100.00
47524;BME280;33253;42.144;25.884;2024-01-30T08:20:45;102724.66;;;1.47;100.00
47524;BME280;33253;42.144;25.884;2024-01-30T08:23:11;102720.09;;;1.44;100.00
47524;BME280;33253;42.144;25.884;2024-01-30T08:25:36;102718.31;;;1.43;100.00
47524;BME280;33253;42.144;25.884;2024-01-30T08:28:02;102710.13;;;1.46;100.00
47524;BME280;33253;42.144;25.884;2024-01-30T08:30:27;102707.47;;;1.53;100.00
47524;BME280;33253;42.144;25.884;2024-01-30T08:32:53;102690.38;;;1.36;100.00
47524;BME280;33253;42.144;25.884;2024-01-30T08:35:18;102675.63;;;1.41;100.00
47524;BME280;33253;42.144;25.884;2024-01-30T08:37:44;102702.69;;;1.64;100.00
47524;BME280;33253;42.144;25.884;2024-01-30T08:40:10;102711.56;;;1.67;100.00
47524;BME280;33253;42.144;25.884;2024-01-30T08:42:35;102704.16;;;1.77;100.00
47524;BME280;33253;42.144;25.884;2024-01-30T08:45:01;102698.50;;;1.80;100.00
47524;BME280;33253;42.144;25.884;2024-01-30T08:47:26;102695.38;;;1.83;100.00
47524;BME280;33253;42.144;25.884;2024-01-30T08:49:52;102697.19;;;1.84;100.00
47524;BME280;33253;42.144;25.884;2024-01-30T08:52:17;102691.84;;;1.89;100.00
47524;BME280;33253;42.144;25.884;2024-01-30T08:54:43;102626.22;;;1.55;100.00
47524;BME280;33253;42.144;25.884;2024-01-30T08:57:08;102677.13;;;1.87;100.00
47524;BME280;33253;42.144;25.884;2024-01-30T08:59:34;102695.56;;;2.00;100.00
47524;BME280;33253;42.144;25.884;2024-01-30T09:01:59;102692.59;;;2.04;100.00
47524;BME280;33253;42.144;25.884;2024-01-30T09:04:25;102700.88;;;2.10;100.00
47524;BME280;33253;42.144;25.884;2024-01-30T09:06:51;102692.44;;;2.19;100.00
47524;BME280;33253;42.144;25.884;2024-01-30T09:09:17;102692.59;;;2.20;100.00
47524;BME280;33253;42.144;25.884;2024-01-30T09:11:43;102686.53;;;2.11;99.93
47524;BME280;33253;42.144;25.884;2024-01-30T09:14:09;102702.19;;;2.23;99.18
47524;BME280;33253;42.144;25.884;2024-01-30T09:16:34;102699.72;;;2.32;100.00
47524;BME280;33253;42.144;25.884;2024-01-30T09:19:01;102679.19;;;2.30;100.00
47524;BME280;33253;42.144;25.884;2024-01-30T09:21:27;102640.00;;;2.05;97.97
47524;BME280;33253;42.144;25.884;2024-01-30T09:23:54;102684.91;;;2.36;97.20
47524;BME280;33253;42.144;25.884;2024-01-30T09:26:20;102700.38;;;2.38;98.13
47524;BME280;33253;42.144;25.884;2024-01-30T09:28:47;102677.44;;;2.38;97.40
47524;BME280;33253;42.144;25.884;2024-01-30T09:31:12;102678.75;;;2.34;98.51
47524;BME280;33253;42.144;25.884;2024-01-30T09:33:38;102683.03;;;2.42;98.60
47524;BME280;33253;42.144;25.884;2024-01-30T09:36:05;102687.97;;;2.41;97.70
47524;BME280;33253;42.144;25.884;2024-01-30T09:38:30;102681.41;;;2.43;97.54
47524;BME280;33253;42.144;25.884;2024-01-30T09:40:59;102675.06;;;2.39;97.70
47524;BME280;33253;42.144;25.884;2024-01-30T09:43:28;102676.53;;;2.37;96.50
47524;BME280;33253;42.144;25.884;2024-01-30T09:45:59;102671.00;;;2.41;96.60
47524;BME280;33253;42.144;25.884;2024-01-30T09:48:26;102657.31;;;2.32;97.12
47524;BME280;33253;42.144;25.884;2024-01-30T09:50:52;102610.91;;;2.03;96.41
47524;BME280;33253;42.144;25.884;2024-01-30T09:53:19;102679.59;;;2.42;96.46
47524;BME280;33253;42.144;25.884;2024-01-30T09:55:45;102668.75;;;2.36;96.57
47524;BME280;33253;42.144;25.884;2024-01-30T09:58:11;102678.47;;;2.56;97.66
47524;BME280;33253;42.144;25.884;2024-01-30T10:00:37;102678.63;;;2.57;98.05
47524;BME280;33253;42.144;25.884;2024-01-30T10:03:03;102679.81;;;2.52;96.58
47524;BME280;33253;42.144;25.884;2024-01-30T10:05:31;102689.41;;;2.55;96.40
47524;BME280;33253;42.144;25.884;2024-01-30T10:07:59;102679.94;;;2.54;96.68
47524;BME280;33253;42.144;25.884;2024-01-30T10:10:24;102686.81;;;2.46;97.15
47524;BME280;33253;42.144;25.884;2024-01-30T10:12:50;102587.41;;;1.89;98.13
47524;BME280;33253;42.144;25.884;2024-01-30T10:15:17;102680.91;;;2.38;97.61
47524;BME280;33253;42.144;25.884;2024-01-30T10:17:44;102684.09;;;2.45;98.58
47524;BME280;33253;42.144;25.884;2024-01-30T10:20:10;102677.78;;;2.41;98.21
47524;BME280;33253;42.144;25.884;2024-01-30T10:22:36;102683.19;;;2.44;98.20
47524;BME280;33253;42.144;25.884;2024-01-30T10:25:03;102675.81;;;2.38;98.02
47524;BME280;33253;42.144;25.884;2024-01-30T10:27:29;102675.06;;;2.39;98.25
47524;BME280;33253;42.144;25.884;2024-01-30T10:29:55;102676.03;;;2.33;97.90
47524;BME280;33253;42.144;25.884;2024-01-30T10:32:21;102644.91;;;2.19;98.59
47524;BME280;33253;42.144;25.884;2024-01-30T10:34:47;102590.13;;;1.91;98.06
47524;BME280;33253;42.144;25.884;2024-01-30T10:37:12;102673.56;;;2.41;98.83
47524;BME280;33253;42.144;25.884;2024-01-30T10:39:41;102670.63;;;2.46;98.59
47524;BME280;33253;42.144;25.884;2024-01-30T10:42:11;102668.22;;;2.47;96.92
47524;BME280;33253;42.144;25.884;2024-01-30T10:44:52;102664.88;;;2.39;96.55
47524;BME280;33253;42.144;25.884;2024-01-30T10:47:26;102645.59;;;2.34;96.32
47524;BME280;33253;42.144;25.884;2024-01-30T10:49:52;102670.69;;;2.54;97.91
47524;BME280;33253;42.144;25.884;2024-01-30T10:52:19;102651.63;;;2.35;96.55
47524;BME280;33253;42.144;25.884;2024-01-30T10:54:46;102652.13;;;2.39;97.22
47524;BME280;33253;42.144;25.884;2024-01-30T10:57:13;102624.66;;;2.37;96.53
47524;BME280;33253;42.144;25.884;2024-01-30T10:59:41;102647.66;;;2.46;95.99
47524;BME280;33253;42.144;25.884;2024-01-30T11:02:09;102662.00;;;2.61;97.17
47524;BME280;33253;42.144;25.884;2024-01-30T11:04:40;102652.16;;;2.64;97.09
47524;BME280;33253;42.144;25.884;2024-01-30T11:09:48;102661.56;;;2.65;96.32
47524;BME280;33253;42.144;25.884;2024-01-30T11:12:14;102657.78;;;2.62;96.56
47524;BME280;33253;42.144;25.884;2024-01-30T11:14:40;102648.78;;;2.56;96.83
47524;BME280;33253;42.144;25.884;2024-01-30T11:17:05;102607.38;;;2.34;97.47
47524;BME280;33253;42.144;25.884;2024-01-30T11:19:31;102642.28;;;2.51;97.49
47524;BME280;33253;42.144;25.884;2024-01-30T11:21:58;102659.31;;;2.59;96.76
47524;BME280;33253;42.144;25.884;2024-01-30T11:24:23;102649.69;;;2.57;96.43
47524;BME280;33253;42.144;25.884;2024-01-30T11:26:50;102647.72;;;2.54;96.36
47524;BME280;33253;42.144;25.884;2024-01-30T11:29:24;102638.75;;;2.58;97.22
47524;BME280;33253;42.144;25.884;2024-01-30T11:31:52;102637.41;;;2.62;96.30
47524;BME280;33253;42.144;25.884;2024-01-30T11:34:20;102630.22;;;2.66;96.41
47524;BME280;33253;42.144;25.884;2024-01-30T11:36:51;102631.47;;;2.70;96.39
47524;BME280;33253;42.144;25.884;2024-01-30T11:39:20;102623.97;;;2.71;96.37
47524;BME280;33253;42.144;25.884;2024-01-30T11:41:45;102548.44;;;2.31;97.15
47524;BME280;33253;42.144;25.884;2024-01-30T11:44:11;102627.09;;;2.69;97.50
47524;BME280;33253;42.144;25.884;2024-01-30T11:46:37;102619.19;;;2.74;97.25
47524;BME280;33253;42.144;25.884;2024-01-30T11:49:02;102588.25;;;2.71;97.46
47524;BME280;33253;42.144;25.884;2024-01-30T11:51:30;102613.50;;;2.77;96.47
47524;BME280;33253;42.144;25.884;2024-01-30T11:53:57;102608.88;;;2.82;97.29
47524;BME280;33253;42.144;25.884;2024-01-30T11:56:24;102523.00;;;2.40;97.01
47524;BME280;33253;42.144;25.884;2024-01-30T11:58:50;102586.38;;;2.86;96.44
47524;BME280;33253;42.144;25.884;2024-01-30T12:01:17;102556.66;;;2.78;96.67
47524;BME280;33253;42.144;25.884;2024-01-30T12:03:48;102592.47;;;3.04;95.23
47524;BME280;33253;42.144;25.884;2024-01-30T12:06:15;102509.19;;;2.71;95.28
47524;BME280;33253;42.144;25.884;2024-01-30T12:08:41;102587.53;;;3.15;95.70
47524;BME280;33253;42.144;25.884;2024-01-30T12:11:07;102575.66;;;3.15;95.51
47524;BME280;33253;42.144;25.884;2024-01-30T12:13:33;102581.09;;;3.18;95.69
47524;BME280;33253;42.144;25.884;2024-01-30T12:15:59;102583.94;;;3.21;95.32
47524;BME280;33253;42.144;25.884;2024-01-30T12:18:25;102586.81;;;3.24;95.74
47524;BME280;33253;42.144;25.884;2024-01-30T12:20:57;102586.97;;;3.26;94.70
47524;BME280;33253;42.144;25.884;2024-01-30T12:23:24;102586.97;;;3.26;94.12
47524;BME280;33253;42.144;25.884;2024-01-30T12:25:51;102580.31;;;3.11;93.74
47524;BME280;33253;42.144;25.884;2024-01-30T12:28:17;102596.63;;;3.04;94.50
47524;BME280;33253;42.144;25.884;2024-01-30T12:30:43;102583.00;;;3.03;94.21
47524;BME280;33253;42.144;25.884;2024-01-30T12:33:08;102584.19;;;2.98;94.64
47524;BME280;33253;42.144;25.884;2024-01-30T12:35:35;102578.78;;;3.04;94.75
47524;BME280;33253;42.144;25.884;2024-01-30T12:38:01;102510.81;;;2.62;94.33